Time;durP1;ratioP1;P1;durP2;ratioP2;P2;SDS_P1;SDS_P2;PMS_P1;PMS_P2;Temp;Humidity;BMP_temperature;BMP_pressure;BME280_temperature;BME280_humidity;BME280_pressure;Samples;Min_cycle;Max_cycle;Signal;HPM_P1;HPM_P2
2022/09/16 00:01:16;;;;;;;2.80;2.00;;;;;;;24.53;37.02;101041.19;5024442;28;20050;-72
2022/09/16 00:03:46;;;;;;;5.50;2.10;;;;;;;24.54;38.29;101037.66;5022219;28;20080;-69
2022/09/16 00:06:25;;;;;;;5.18;2.30;;;;;;;24.51;39.60;101033.31;5028210;28;20084;-69
2022/09/16 00:08:55;;;;;;;3.55;2.00;;;;;;;24.49;39.89;101039.53;5019370;28;20509;-71
2022/09/16 00:11:24;;;;;;;4.75;2.17;;;;;;;24.48;39.12;101032.50;5027575;28;20788;-70
2022/09/16 00:13:53;;;;;;;3.67;2.33;;;;;;;24.44;38.95;101029.91;5009670;28;20492;-68
2022/09/16 00:16:25;;;;;;;5.45;2.40;;;;;;;24.41;38.97;101037.03;5015011;28;20056;-71
2022/09/16 00:18:56;;;;;;;4.60;2.28;;;;;;;24.38;37.75;101037.13;5019677;28;20049;-69
2022/09/16 00:21:26;;;;;;;4.57;2.58;;;;;;;24.36;37.44;101034.50;5014969;28;20053;-70
2022/09/16 00:23:54;;;;;;;3.85;1.95;;;;;;;24.38;39.81;101038.00;5029119;28;20049;-70
2022/09/16 00:26:23;;;;;;;5.53;2.20;;;;;;;24.35;40.17;101037.19;5016662;28;20046;-70
2022/09/16 00:28:52;;;;;;;3.70;2.13;;;;;;;24.34;38.25;101038.09;5021298;28;20450;-71
2022/09/16 00:31:22;;;;;;;4.00;2.33;;;;;;;24.31;37.79;101036.41;5022911;28;20665;-68
2022/09/16 00:33:51;;;;;;;2.80;2.05;;;;;;;24.32;39.37;101039.91;5015101;28;20065;-68
2022/09/16 00:36:20;;;;;;;6.75;2.20;;;;;;;24.26;38.83;101038.28;5013979;28;20410;-68
2022/09/16 00:38:53;;;;;;;4.60;2.20;;;;;;;24.24;38.36;101040.94;5019256;28;20411;-68
2022/09/16 00:41:44;;;;;;;3.33;2.30;;;;;;;24.24;39.16;101045.38;5020439;28;20573;-68
2022/09/16 00:44:45;;;;;;;13.93;11.80;;;;;;;24.22;38.57;101047.19;5033969;28;20048;-68
2022/09/16 00:47:19;;;;;;;8.85;5.68;;;;;;;24.18;37.39;101046.38;5017999;28;20287;-68
2022/09/16 00:49:48;;;;;;;6.10;3.47;;;;;;;24.16;38.22;101047.31;5015477;28;20052;-69
2022/09/16 00:52:19;;;;;;;3.80;2.38;;;;;;;24.14;40.56;101044.69;5030394;28;20536;-69
2022/09/16 00:54:48;;;;;;;4.00;2.05;;;;;;;24.13;39.98;101050.03;5030788;28;20048;-69
2022/09/16 00:57:17;;;;;;;3.83;2.60;;;;;;;24.06;39.92;101046.66;5023292;28;20046;-69
2022/09/16 00:59:50;;;;;;;3.22;2.40;;;;;;;24.01;40.59;101051.16;5013650;28;20045;-67
2022/09/16 01:02:22;;;;;;;5.40;2.50;;;;;;;23.98;41.10;101049.47;5031583;28;20052;-67
2022/09/16 01:04:55;;;;;;;6.93;2.53;;;;;;;23.93;41.26;101055.75;5023584;28;20045;-67
2022/09/16 01:07:29;;;;;;;4.40;2.25;;;;;;;23.90;41.69;101048.75;5012332;28;20488;-67
2022/09/16 01:09:58;;;;;;;3.45;2.10;;;;;;;23.85;41.46;101050.63;5011614;28;20139;-67
2022/09/16 01:12:30;;;;;;;4.00;2.22;;;;;;;23.84;41.42;101051.50;5024392;28;20045;-67
2022/09/16 01:15:00;;;;;;;3.92;2.30;;;;;;;23.82;42.04;101050.66;5022314;28;20060;-68
2022/09/16 01:17:45;;;;;;;3.90;2.20;;;;;;;23.80;41.59;101044.53;5022275;28;20085;-67
2022/09/16 01:20:54;;;;;;;3.60;2.40;;;;;;;23.76;40.55;101053.47;5020496;28;20046;-68
2022/09/16 01:24:02;;;;;;;3.63;2.40;;;;;;;23.71;42.17;101049.97;5030734;28;20136;-68
2022/09/16 01:27:05;;;;;;;3.53;2.20;;;;;;;23.64;43.54;101049.25;5021226;28;20056;-68
2022/09/16 01:30:05;;;;;;;5.00;2.08;;;;;;;23.57;41.96;101047.63;5013009;28;20542;-68
2022/09/16 01:32:44;;;;;;;4.53;2.40;;;;;;;23.51;41.78;101043.34;5011175;28;20415;-68
2022/09/16 01:35:25;;;;;;;2.70;2.08;;;;;;;23.47;41.15;101052.22;5024570;28;20491;-68
2022/09/16 01:38:03;;;;;;;3.38;2.38;;;;;;;23.42;40.79;101049.66;5018254;28;20065;-68
2022/09/16 01:40:42;;;;;;;4.78;2.10;;;;;;;23.38;41.14;101052.38;5021190;28;20041;-68
2022/09/16 01:43:20;;;;;;;4.78;2.15;;;;;;;23.35;41.30;101052.47;5016408;28;20532;-68
2022/09/16 01:45:58;;;;;;;3.63;2.03;;;;;;;23.31;41.06;101058.69;5022384;28;20559;-68
2022/09/16 01:48:36;;;;;;;5.07;2.42;;;;;;;23.25;41.07;101051.75;5027856;28;20057;-68
2022/09/16 01:51:13;;;;;;;2.75;2.00;;;;;;;23.18;40.81;101056.28;5028289;28;20049;-68
2022/09/16 01:53:50;;;;;;;3.10;2.20;;;;;;;23.13;40.83;101052.84;5031619;28;20054;-68
2022/09/16 01:56:25;;;;;;;3.88;2.47;;;;;;;23.08;41.33;101054.69;5016538;28;20046;-68
2022/09/16 01:58:58;;;;;;;4.53;2.53;;;;;;;23.04;41.56;101067.97;5017775;28;20419;-68
2022/09/16 02:01:33;;;;;;;3.83;2.13;;;;;;;22.96;43.42;101066.28;5014572;28;20499;-67
2022/09/16 02:04:08;;;;;;;5.60;2.28;;;;;;;22.90;43.10;101065.53;5025286;28;20053;-67
2022/09/16 02:06:39;;;;;;;5.00;2.33;;;;;;;22.83;42.11;101070.03;5030261;28;20471;-67
2022/09/16 02:09:14;;;;;;;4.38;2.33;;;;;;;22.77;42.03;101075.44;5017363;28;20067;-67
2022/09/16 02:11:45;;;;;;;4.20;2.20;;;;;;;22.70;42.18;101079.91;5021867;28;20491;-68
2022/09/16 02:14:17;;;;;;;4.70;2.50;;;;;;;22.66;42.78;101085.28;5019979;28;20507;-67
2022/09/16 02:16:49;;;;;;;;;;;;;;;22.51;42.86;101073.16;5028073;28;20453;-68
2022/09/16 02:19:24;;;;;;;3.95;2.75;;;;;;;22.49;43.47;101085.50;5030003;28;20353;-68
2022/09/16 02:21:53;;;;;;;4.63;2.92;;;;;;;22.42;43.37;101083.84;5021425;28;20073;-69
2022/09/16 02:24:25;;;;;;;6.30;3.22;;;;;;;22.34;43.66;101087.47;5027333;28;20054;-68
2022/09/16 02:26:58;;;;;;;5.97;3.40;;;;;;;22.27;43.63;101085.81;5013690;28;20518;-68
2022/09/16 02:29:29;;;;;;;6.30;3.42;;;;;;;22.19;44.26;101082.38;5015424;28;20142;-69
2022/09/16 02:32:01;;;;;;;8.13;2.88;;;;;;;22.13;44.11;101082.47;5019302;28;20056;-69
2022/09/16 02:34:36;;;;;;;5.43;2.92;;;;;;;22.08;44.34;101081.63;5022830;28;20914;-69
2022/09/16 02:37:11;;;;;;;9.77;3.30;;;;;;;22.03;44.70;101086.09;5023818;28;20042;-69
2022/09/16 02:39:45;;;;;;;5.95;2.97;;;;;;;21.96;44.40;101091.44;5019626;28;20054;-68
2022/09/16 02:42:14;;;;;;;5.40;3.05;;;;;;;21.87;44.40;101090.69;5025603;28;20582;-69
2022/09/16 02:44:44;;;;;;;4.47;3.13;;;;;;;21.82;44.35;101087.22;5019138;28;20050;-68
2022/09/16 02:47:17;;;;;;;5.40;2.95;;;;;;;21.78;44.98;101096.91;5025655;28;20474;-68
2022/09/16 02:49:58;;;;;;;6.65;3.17;;;;;;;21.72;44.86;101099.66;5025094;28;20070;-68
2022/09/16 02:52:37;;;;;;;5.13;2.97;;;;;;;21.69;45.08;101102.28;5026357;28;20064;-68
2022/09/16 02:55:15;;;;;;;5.88;2.80;;;;;;;21.64;45.04;101104.09;5023708;28;20045;-68
2022/09/16 02:57:43;;;;;;;4.88;2.55;;;;;;;21.61;45.02;101098.88;5022170;28;20045;-68
2022/09/16 03:00:12;;;;;;;4.80;3.05;;;;;;;21.54;45.97;101109.47;5025155;28;20700;-69
2022/09/16 03:02:41;;;;;;;5.50;2.97;;;;;;;21.48;45.76;101112.16;5028568;28;20048;-73
2022/09/16 03:05:12;;;;;;;6.15;3.03;;;;;;;21.47;45.60;101117.47;5026220;28;20045;-72
2022/09/16 03:07:42;;;;;;;4.85;3.35;;;;;;;21.44;45.87;101118.38;5021631;28;20491;-72
2022/09/16 03:10:14;;;;;;;4.38;2.80;;;;;;;21.43;46.07;101124.50;5024269;28;20407;-72
2022/09/16 03:12:57;;;;;;;5.40;3.28;;;;;;;21.39;46.37;101128.00;5023783;28;20060;-73
2022/09/16 03:15:53;;;;;;;6.65;3.05;;;;;;;21.37;46.79;101124.50;5021671;28;20054;-72
2022/09/16 03:18:53;;;;;;;5.18;3.00;;;;;;;21.32;47.28;101134.22;5020114;28;20100;-72
2022/09/16 03:21:31;;;;;;;5.38;2.95;;;;;;;21.29;48.00;101136.88;5018622;28;20042;-72
2022/09/16 03:24:09;;;;;;;6.68;2.80;;;;;;;21.21;48.17;101136.06;5022747;28;20056;-73
2022/09/16 03:26:47;;;;;;;4.80;3.22;;;;;;;21.13;48.81;101139.63;5018771;28;20052;-72
2022/09/16 03:29:26;;;;;;;4.63;3.10;;;;;;;21.12;48.57;101147.56;5023291;28;20169;-72
2022/09/16 03:32:03;;;;;;;6.10;3.25;;;;;;;21.08;48.98;101153.72;5025639;28;20045;-73
2022/09/16 03:34:36;;;;;;;9.23;3.00;;;;;;;21.02;49.08;101152.00;5020600;28;20503;-72
2022/09/16 03:37:10;;;;;;;8.10;3.60;;;;;;;21.02;49.19;101164.28;5030653;28;20045;-72
2022/09/16 03:39:40;;;;;;;9.38;3.30;;;;;;;20.95;49.53;101158.19;5017329;28;20073;-69
2022/09/16 03:42:11;;;;;;;6.72;3.35;;;;;;;20.96;49.41;101162.59;5019570;28;20506;-72
2022/09/16 03:44:41;;;;;;;6.93;3.53;;;;;;;20.92;49.95;101176.63;5020566;28;20462;-72
2022/09/16 03:47:10;;;;;;;5.38;3.28;;;;;;;20.89;50.02;101166.13;5017732;28;20052;-71
2022/09/16 03:49:39;;;;;;;9.52;3.72;;;;;;;20.86;50.31;101171.41;5031035;28;20197;-70
2022/09/16 03:52:10;;;;;;;6.43;3.20;;;;;;;20.83;50.42;101172.31;5026758;28;20046;-72
2022/09/16 03:54:39;;;;;;;8.45;3.28;;;;;;;20.83;50.67;101174.94;5024732;28;20057;-72
2022/09/16 03:57:07;;;;;;;5.05;3.08;;;;;;;20.80;50.87;101172.34;5029544;28;20053;-72
2022/09/16 03:59:36;;;;;;;6.32;3.42;;;;;;;20.79;51.52;101178.47;5028695;28;20053;-71
2022/09/16 04:02:05;;;;;;;6.40;3.47;;;;;;;20.80;51.42;101179.31;5032719;28;20053;-72
2022/09/16 04:04:33;;;;;;;6.18;3.20;;;;;;;20.79;51.11;101178.47;5028110;28;20146;-72
2022/09/16 04:07:02;;;;;;;9.38;3.72;;;;;;;20.78;51.14;101183.75;5023623;28;20038;-72
2022/09/16 04:09:32;;;;;;;5.20;3.30;;;;;;;20.77;50.94;101182.84;5011014;28;20050;-72
2022/09/16 04:12:01;;;;;;;6.32;3.20;;;;;;;20.78;51.09;101186.38;5017125;28;20064;-71
2022/09/16 04:14:30;;;;;;;5.43;3.78;;;;;;;20.78;51.26;101183.75;5019347;28;20458;-73
2022/09/16 04:16:58;;;;;;;10.40;3.60;;;;;;;20.77;51.23;101182.84;5025248;28;20131;-73
2022/09/16 04:19:27;;;;;;;10.50;3.40;;;;;;;20.73;51.00;101185.50;5023071;28;20054;-72
2022/09/16 04:21:56;;;;;;;6.15;3.20;;;;;;;20.67;51.02;101189.91;5025948;28;20095;-72
2022/09/16 04:24:24;;;;;;;7.18;3.60;;;;;;;20.62;51.06;101183.81;5035097;28;20057;-72
2022/09/16 04:26:54;;;;;;;6.38;3.08;;;;;;;20.55;51.66;101187.34;5032408;28;20053;-72
2022/09/16 04:29:23;;;;;;;6.78;3.40;;;;;;;20.51;51.39;101191.72;5031557;28;20041;-71
2022/09/16 04:31:52;;;;;;;5.30;3.00;;;;;;;20.47;51.78;101187.34;5019886;28;20052;-71
2022/09/16 04:34:20;;;;;;;12.30;3.33;;;;;;;20.40;51.82;101180.38;5020433;28;20049;-72
2022/09/16 04:36:49;;;;;;;9.68;3.40;;;;;;;20.36;52.13;101181.25;5021488;28;20458;-72
2022/09/16 04:39:18;;;;;;;5.35;2.95;;;;;;;20.33;52.25;101185.69;5027428;28;20072;-72
2022/09/16 04:41:47;;;;;;;5.47;3.05;;;;;;;20.28;52.34;101189.19;5027965;28;20063;-72
2022/09/16 04:44:17;;;;;;;7.60;3.20;;;;;;;20.23;52.30;101193.59;5028358;28;20041;-75
2022/09/16 04:46:46;;;;;;;8.45;3.47;;;;;;;20.20;52.21;101198.88;5024452;28;20123;-74
2022/09/16 04:49:15;;;;;;;8.52;3.55;;;;;;;20.17;52.74;101196.22;5026513;28;20077;-74
2022/09/16 04:51:43;;;;;;;5.90;3.22;;;;;;;20.13;52.70;101197.09;5030214;28;20054;-75
2022/09/16 04:54:12;;;;;;;7.90;3.03;;;;;;;20.07;53.13;101199.78;5022875;28;20049;-75
2022/09/16 04:56:40;;;;;;;6.50;3.10;;;;;;;20.04;52.85;101198.03;5029929;28;20129;-75
2022/09/16 04:59:10;;;;;;;6.97;2.95;;;;;;;20.02;52.96;101196.25;5031511;28;20511;-74
2022/09/16 05:01:40;;;;;;;8.88;3.25;;;;;;;19.99;52.96;101186.63;5025656;28;20125;-75
2022/09/16 05:04:10;;;;;;;7.55;3.10;;;;;;;19.96;53.22;101197.16;5023997;28;20056;-74
2022/09/16 05:06:41;;;;;;;5.55;2.65;;;;;;;19.93;53.12;101191.03;5040596;28;20115;-74
2022/09/16 05:09:11;;;;;;;8.23;3.05;;;;;;;19.90;53.06;101194.53;5031320;28;20130;-74
2022/09/16 05:11:41;;;;;;;7.15;3.05;;;;;;;19.85;53.32;101197.19;5034182;28;20049;-73
2022/09/16 05:14:14;;;;;;;6.80;3.05;;;;;;;19.83;53.65;101198.94;5038292;28;20076;-76
2022/09/16 05:16:45;;;;;;;5.85;2.55;;;;;;;19.78;54.32;101203.31;5026646;28;20131;-74
2022/09/16 05:19:15;;;;;;;4.75;3.25;;;;;;;19.74;56.51;101201.56;5026153;28;20423;-73
2022/09/16 05:21:43;;;;;;;9.48;3.30;;;;;;;19.67;54.21;101202.41;5022676;28;20565;-74
2022/09/16 05:24:14;;;;;;;10.20;3.13;;;;;;;19.63;54.41;101198.03;5023560;28;20045;-74
2022/09/16 05:26:43;;;;;;;6.35;3.03;;;;;;;19.54;54.81;101200.66;5023019;28;20570;-73
2022/09/16 05:29:14;;;;;;;6.05;2.85;;;;;;;19.49;54.44;101207.69;5023691;28;20593;-74
2022/09/16 05:31:46;;;;;;;7.80;2.90;;;;;;;19.46;54.10;101206.81;5026962;28;20047;-73
2022/09/16 05:34:17;;;;;;;6.28;2.50;;;;;;;19.45;54.26;101207.69;5013281;28;20045;-74
2022/09/16 05:36:46;;;;;;;4.03;2.63;;;;;;;19.43;54.41;101205.94;5033052;28;20056;-74
2022/09/16 05:39:16;;;;;;;3.97;2.97;;;;;;;19.41;54.49;101203.31;5022181;28;20081;-73
2022/09/16 05:41:45;;;;;;;6.07;2.78;;;;;;;19.39;54.37;101206.81;5021111;28;20081;-75
2022/09/16 05:44:14;;;;;;;6.00;2.58;;;;;;;19.36;54.32;101206.81;5030900;28;20057;-75
2022/09/16 05:46:43;;;;;;;3.97;2.30;;;;;;;19.32;54.41;101203.31;5019759;28;20046;-72
2022/09/16 05:49:19;;;;;;;4.35;2.42;;;;;;;19.29;54.76;101203.31;5022593;28;20054;-75
2022/09/16 05:51:48;;;;;;;5.25;2.55;;;;;;;19.27;54.01;101202.44;5022987;28;20049;-74
2022/09/16 05:54:18;;;;;;;6.32;2.33;;;;;;;19.23;53.46;101204.16;5022202;28;20053;-75
2022/09/16 05:56:48;;;;;;;5.05;2.53;;;;;;;19.16;53.75;101198.94;5024283;28;20072;-75
2022/09/16 05:59:17;;;;;;;6.78;2.15;;;;;;;19.15;53.79;101205.03;5027060;28;20494;-75
2022/09/16 06:01:46;;;;;;;5.03;2.25;;;;;;;19.13;54.26;101206.81;5026445;28;20068;-75
2022/09/16 06:04:17;;;;;;;4.25;2.53;;;;;;;19.12;53.59;101205.03;5024028;28;21145;-75
2022/09/16 06:06:47;;;;;;;3.47;1.80;;;;;;;19.11;53.88;101213.78;5020719;28;20172;-75
2022/09/16 06:09:17;;;;;;;3.97;1.92;;;;;;;19.08;53.39;101209.41;5026871;28;20545;-76
2022/09/16 06:11:48;;;;;;;4.38;1.92;;;;;;;19.03;53.16;101208.50;5019447;28;20053;-76
2022/09/16 06:14:19;;;;;;;3.47;1.65;;;;;;;19.01;53.02;101211.16;5025837;28;20046;-74
2022/09/16 06:16:48;;;;;;;4.15;1.65;;;;;;;19.00;53.07;101213.75;5024999;28;20133;-75
2022/09/16 06:19:19;;;;;;;4.32;1.60;;;;;;;18.99;53.16;101212.03;5031099;28;20617;-75
2022/09/16 06:21:48;;;;;;;3.45;1.45;;;;;;;18.95;52.79;101208.50;5025124;28;20068;-75
2022/09/16 06:24:18;;;;;;;2.72;1.40;;;;;;;18.93;53.01;101209.38;5026375;28;20072;-71
2022/09/16 06:26:48;;;;;;;2.67;1.50;;;;;;;18.93;52.79;101212.88;5020935;28;20064;-71
2022/09/16 06:29:17;;;;;;;5.18;1.70;;;;;;;18.89;52.36;101213.72;5016642;28;20802;-71
2022/09/16 06:31:46;;;;;;;3.40;1.35;;;;;;;18.82;52.67;101212.81;5023654;28;20496;-72
2022/09/16 06:34:18;;;;;;;1.13;0.90;;;;;;;18.86;52.24;101218.09;5022523;28;20608;-71
2022/09/16 06:36:47;;;;;;;2.85;1.35;;;;;;;18.86;51.36;101223.34;5024667;28;20104;-72
2022/09/16 06:39:17;;;;;;;3.03;1.05;;;;;;;18.84;51.08;101224.19;5025319;28;20044;-71
2022/09/16 06:41:46;;;;;;;2.50;1.02;;;;;;;18.75;51.33;101216.28;5017769;28;20136;-71
2022/09/16 06:44:14;;;;;;;2.13;1.17;;;;;;;18.84;51.06;101225.94;5024894;28;20049;-72
2022/09/16 06:46:43;;;;;;;2.45;1.30;;;;;;;18.82;51.07;101217.19;5027962;28;20060;-71
2022/09/16 06:49:11;;;;;;;3.58;1.23;;;;;;;18.81;51.02;101220.72;5024584;28;20044;-71
2022/09/16 06:51:42;;;;;;;2.72;1.10;;;;;;;18.78;50.40;101221.59;5027352;28;20081;-71
2022/09/16 06:54:11;;;;;;;1.95;1.05;;;;;;;18.77;50.49;101218.94;5025160;28;20514;-72
2022/09/16 06:56:40;;;;;;;2.17;1.05;;;;;;;18.76;51.13;101220.66;5027417;28;20057;-72
2022/09/16 06:59:09;;;;;;;2.35;1.17;;;;;;;18.74;50.59;101218.91;5033458;28;20434;-72
2022/09/16 07:01:38;;;;;;;1.45;1.10;;;;;;;18.72;50.81;101225.88;5030530;28;20053;-72
2022/09/16 07:04:09;;;;;;;3.20;1.10;;;;;;;18.67;50.09;101228.50;5033532;28;20461;-71
2022/09/16 07:06:38;;;;;;;2.28;1.05;;;;;;;18.59;52.19;101230.19;5025635;28;20060;-71
2022/09/16 07:09:09;;;;;;;1.33;0.98;;;;;;;18.52;49.90;101229.28;5018050;28;20494;-70
2022/09/16 07:11:39;;;;;;;1.55;0.85;;;;;;;18.50;49.33;101228.41;5017614;28;20053;-70
2022/09/16 07:14:08;;;;;;;1.77;0.77;;;;;;;18.47;50.49;101233.66;5014523;28;20100;-71
2022/09/16 07:16:37;;;;;;;1.75;0.82;;;;;;;18.45;49.56;101224.03;5018735;28;20435;-71
2022/09/16 07:19:06;;;;;;;1.23;0.60;;;;;;;18.41;49.75;101231.84;5020696;28;20937;-72
2022/09/16 07:21:34;;;;;;;1.83;0.77;;;;;;;18.38;50.67;101228.38;5019322;28;20052;-71
2022/09/16 07:24:04;;;;;;;1.13;0.85;;;;;;;18.34;50.77;101230.06;5026190;28;20045;-71
2022/09/16 07:26:36;;;;;;;0.90;0.80;;;;;;;18.30;51.26;101230.06;5021272;28;20045;-71
2022/09/16 07:29:07;;;;;;;1.50;0.70;;;;;;;18.26;49.75;101230.94;5028053;28;20111;-71
2022/09/16 07:31:38;;;;;;;1.00;0.70;;;;;;;18.19;50.96;101228.28;5019326;28;21208;-71
2022/09/16 07:34:09;;;;;;;0.93;0.70;;;;;;;18.17;49.74;101232.63;5018501;28;20068;-70
2022/09/16 07:36:47;;;;;;;2.58;0.98;;;;;;;18.17;50.22;101237.00;5027899;28;20057;-70
2022/09/16 07:39:17;;;;;;;1.10;0.90;;;;;;;18.15;50.62;101234.34;5025803;28;20388;-70
2022/09/16 07:41:49;;;;;;;1.40;0.73;;;;;;;18.13;51.63;101245.69;5024524;28;20124;-72
2022/09/16 07:44:21;;;;;;;1.52;0.70;;;;;;;18.13;50.59;101246.56;5006000;28;20048;-72
2022/09/16 07:46:50;;;;;;;2.45;0.95;;;;;;;18.13;50.53;101246.56;4995794;28;20435;-72
2022/09/16 07:49:19;;;;;;;1.80;0.85;;;;;;;18.13;49.70;101235.22;5002173;28;20589;-71
2022/09/16 07:51:48;;;;;;;1.40;0.80;;;;;;;18.09;50.08;101243.91;4999984;28;20511;-71
2022/09/16 07:54:18;;;;;;;1.40;0.68;;;;;;;18.11;49.81;101243.03;5002791;28;20049;-71
2022/09/16 07:56:49;;;;;;;1.23;0.60;;;;;;;18.09;50.13;101249.16;5011152;28;20050;-70
2022/09/16 07:59:19;;;;;;;1.15;0.63;;;;;;;18.04;50.06;101254.34;5015513;28;20381;-71
2022/09/16 08:01:49;;;;;;;2.17;0.70;;;;;;;17.99;50.21;101251.69;5013315;28;20096;-70
2022/09/16 08:04:19;;;;;;;1.75;0.65;;;;;;;17.98;50.04;101251.69;5009955;28;20053;-71
2022/09/16 08:06:47;;;;;;;1.58;0.70;;;;;;;17.93;49.84;101243.78;5007761;28;20091;-72
2022/09/16 08:09:16;;;;;;;2.35;0.95;;;;;;;17.94;50.04;101239.47;5010988;28;20042;-71
2022/09/16 08:11:45;;;;;;;1.10;0.60;;;;;;;17.93;50.68;101232.47;5011211;28;20125;-70
2022/09/16 08:14:15;;;;;;;1.15;0.70;;;;;;;17.91;50.87;101240.31;5011124;28;20522;-72
2022/09/16 08:16:44;;;;;;;2.70;0.52;;;;;;;17.91;50.86;101231.56;5011139;28;20137;-72
2022/09/16 08:19:12;;;;;;;1.35;0.80;;;;;;;17.89;50.15;101242.03;5018703;28;20587;-71
2022/09/16 08:21:41;;;;;;;2.88;0.70;;;;;;;17.86;50.44;101243.75;5014687;28;20050;-71
2022/09/16 08:24:11;;;;;;;1.15;0.65;;;;;;;17.80;51.80;101242.81;5005783;28;20046;-71
2022/09/16 08:26:39;;;;;;;1.15;0.50;;;;;;;17.75;52.21;101247.16;5000623;28;20507;-70
2022/09/16 08:29:08;;;;;;;1.10;0.85;;;;;;;17.70;51.98;101254.06;5005295;28;20049;-70
2022/09/16 08:31:39;;;;;;;0.90;0.65;;;;;;;17.68;51.85;101252.28;5000438;28;20116;-72
2022/09/16 08:34:08;;;;;;;1.65;0.70;;;;;;;17.68;51.46;101252.28;5004453;28;20064;-71
2022/09/16 08:36:36;;;;;;;1.65;0.68;;;;;;;17.67;51.55;101259.28;5011444;28;20060;-70
2022/09/16 08:39:05;;;;;;;1.77;0.60;;;;;;;17.62;51.41;101253.13;5008454;28;20518;-70
2022/09/16 08:42:11;;;;;;;1.27;0.88;;;;;;;17.59;51.33;101250.47;5009806;28;20056;-70
2022/09/16 08:44:49;;;;;;;2.22;0.63;;;;;;;17.58;51.92;101249.59;4946315;28;20055;-71
2022/09/16 08:47:32;;;;;;;1.00;0.70;;;;;;;17.60;52.10;101249.63;4983537;28;20230;-70
2022/09/16 08:50:04;;;;;;;0.60;0.50;;;;;;;17.59;51.88;101258.31;4992077;28;20042;-70
2022/09/16 08:52:43;;;;;;;1.45;0.60;;;;;;;17.59;53.17;101258.31;4985539;28;20054;-70
2022/09/16 08:55:15;;;;;;;2.30;0.88;;;;;;;17.58;51.12;101251.34;4996757;28;20058;-71
2022/09/16 08:57:52;;;;;;;1.30;0.65;;;;;;;17.58;52.29;101249.59;4990398;28;20045;-70
2022/09/16 09:00:20;;;;;;;0.77;0.68;;;;;;;17.57;51.76;101247.88;4991574;28;20049;-69
2022/09/16 09:02:56;;;;;;;1.08;0.68;;;;;;;17.58;51.08;101248.72;4985929;28;20051;-70
2022/09/16 09:05:33;;;;;;;2.55;0.60;;;;;;;17.57;50.06;101244.38;4993681;28;20057;-70
2022/09/16 09:08:19;;;;;;;1.25;0.50;;;;;;;17.57;50.55;101255.72;4990075;28;20085;-71
2022/09/16 09:10:52;;;;;;;0.60;0.50;;;;;;;17.58;50.45;101256.59;4993489;28;20039;-71
2022/09/16 09:13:45;;;;;;;1.40;0.50;;;;;;;17.58;50.77;101254.84;4988806;28;20042;-71
2022/09/16 09:16:21;;;;;;;0.73;0.45;;;;;;;17.61;51.08;101256.59;4996502;28;20404;-70
2022/09/16 09:19:00;;;;;;;1.92;0.73;;;;;;;17.52;50.87;101253.91;4988993;28;20133;-71
2022/09/16 09:21:36;;;;;;;1.50;0.60;;;;;;;17.47;51.56;101259.09;4992509;28;20042;-70
2022/09/16 09:24:28;;;;;;;2.53;0.63;;;;;;;17.44;52.54;101260.81;4992012;28;20048;-70
2022/09/16 09:27:00;;;;;;;6.97;1.00;;;;;;;17.38;51.74;101249.44;4984024;28;20464;-71
2022/09/16 09:29:52;;;;;;;0.95;0.52;;;;;;;17.35;52.75;101259.00;4987204;28;20050;-70
2022/09/16 09:32:27;;;;;;;1.13;0.50;;;;;;;17.36;53.14;101261.63;4990795;28;20049;-69
2022/09/16 09:35:16;;;;;;;0.80;0.63;;;;;;;17.33;52.04;101263.31;4988853;28;20567;-70
2022/09/16 09:38:20;;;;;;;0.60;0.52;;;;;;;17.32;52.05;101258.97;4985385;28;20049;-70
2022/09/16 09:40:55;;;;;;;1.85;0.60;;;;;;;17.31;52.08;101263.31;4983737;28;20156;-72
2022/09/16 09:43:29;;;;;;;1.38;0.60;;;;;;;17.31;51.17;101265.91;5001267;28;20057;-71
2022/09/16 09:46:03;;;;;;;1.63;0.52;;;;;;;17.28;51.00;101271.13;5023819;28;20648;-70
2022/09/16 09:48:37;;;;;;;0.88;0.50;;;;;;;17.25;50.75;101272.81;5023040;28;20432;-70
2022/09/16 09:51:15;;;;;;;2.03;0.50;;;;;;;17.23;50.30;101270.22;5029684;28;20048;-70
2022/09/16 09:53:49;;;;;;;1.30;0.55;;;;;;;17.21;50.38;101271.94;5025692;28;20057;-71
2022/09/16 09:56:21;;;;;;;1.05;0.70;;;;;;;17.20;50.14;101272.78;5021556;28;20441;-70
2022/09/16 09:58:58;;;;;;;1.15;0.60;;;;;;;17.17;50.95;101267.53;5023645;28;20491;-70
2022/09/16 10:01:26;;;;;;;1.20;0.73;;;;;;;17.14;50.47;101275.34;5029265;28;20545;-71
2022/09/16 10:03:56;;;;;;;1.05;0.70;;;;;;;17.09;50.90;101271.81;5029375;28;20045;-70
2022/09/16 10:06:30;;;;;;;1.88;0.75;;;;;;;17.05;51.30;101270.88;5030776;28;20053;-70
2022/09/16 10:09:00;;;;;;;1.33;0.77;;;;;;;17.00;51.55;101271.72;5022818;28;20875;-70
2022/09/16 10:11:30;;;;;;;1.08;0.70;;;;;;;16.95;51.70;101272.53;5023830;28;20046;-71
2022/09/16 10:14:01;;;;;;;0.75;0.52;;;;;;;16.92;51.53;101275.09;5029042;28;20127;-70
2022/09/16 10:16:33;;;;;;;1.20;0.80;;;;;;;16.87;51.86;101275.91;5024350;28;20516;-71
2022/09/16 10:19:07;;;;;;;0.87;0.60;;;;;;;16.87;51.62;101273.28;5022466;28;20048;-71
2022/09/16 10:21:46;;;;;;;1.13;0.68;;;;;;;16.84;51.71;101276.75;5022435;28;21233;-71
2022/09/16 10:24:30;;;;;;;0.70;0.57;;;;;;;16.80;52.23;101274.94;5019553;28;20045;-70
2022/09/16 10:27:00;;;;;;;1.52;0.90;;;;;;;16.78;52.55;101281.00;5026871;28;20053;-71
2022/09/16 10:29:29;;;;;;;1.35;0.75;;;;;;;16.74;52.76;101275.72;5021728;28;20119;-70
2022/09/16 10:31:58;;;;;;;2.15;0.80;;;;;;;16.72;52.03;101279.16;5024182;28;20050;-71
2022/09/16 10:34:33;;;;;;;2.20;0.57;;;;;;;16.69;52.26;101292.19;5026343;28;20045;-70
2022/09/16 10:37:06;;;;;;;1.50;0.70;;;;;;;16.66;52.94;101295.66;5019722;28;20060;-72
2022/09/16 10:39:35;;;;;;;2.92;1.45;;;;;;;16.63;53.51;101290.41;5024945;28;20049;-71
2022/09/16 10:42:05;;;;;;;1.30;0.60;;;;;;;16.60;53.30;101292.06;5032680;28;20071;-70
2022/09/16 10:44:35;;;;;;;2.38;0.77;;;;;;;16.55;51.88;101289.41;5024746;28;20659;-71
2022/09/16 10:47:16;;;;;;;0.85;0.75;;;;;;;16.53;52.13;101284.16;5023281;28;20046;-71
2022/09/16 10:49:49;;;;;;;0.80;0.50;;;;;;;16.52;52.42;101278.91;5019238;28;20057;-71
2022/09/16 10:52:19;;;;;;;;;;;;;;;16.45;52.49;101267.50;5020319;28;20049;-70
2022/09/16 10:54:49;;;;;;;1.15;0.68;;;;;;;16.51;52.52;101292.81;5022073;28;20574;-71
2022/09/16 10:57:25;;;;;;;0.98;0.70;;;;;;;16.48;52.25;101287.56;5021302;28;20057;-70
2022/09/16 11:00:03;;;;;;;1.42;0.57;;;;;;;16.46;53.16;101286.66;5026208;28;20749;-70
2022/09/16 11:02:50;;;;;;;1.02;0.70;;;;;;;16.35;52.75;101276.06;5026915;28;20978;-71
2022/09/16 11:05:26;;;;;;;0.77;0.63;;;;;;;16.37;52.65;101276.97;5027698;28;20129;-70
2022/09/16 11:08:04;;;;;;;0.93;0.68;;;;;;;16.42;52.92;101283.13;5029692;28;20631;-71
2022/09/16 11:10:40;;;;;;;1.13;0.75;;;;;;;16.43;52.45;101290.13;5023035;28;20049;-71
2022/09/16 11:13:25;;;;;;;0.57;0.55;;;;;;;16.43;52.30;101284.91;5027924;28;20041;-71
2022/09/16 11:16:18;;;;;;;0.88;0.50;;;;;;;16.44;52.01;101288.38;5020481;28;20049;-70
2022/09/16 11:18:56;;;;;;;1.20;0.85;;;;;;;16.42;52.29;101280.50;5019883;28;20053;-70
2022/09/16 11:21:41;;;;;;;0.82;0.40;;;;;;;16.44;52.46;101291.84;5019592;28;20041;-71
2022/09/16 11:24:34;;;;;;;1.75;0.65;;;;;;;16.40;52.76;101284.84;5021526;28;20053;-71
2022/09/16 11:27:10;;;;;;;1.08;0.60;;;;;;;16.39;52.79;101287.44;5028947;28;20095;-71
2022/09/16 11:29:58;;;;;;;1.33;0.70;;;;;;;16.42;52.19;101296.19;5028735;28;20654;-71
2022/09/16 11:32:39;;;;;;;1.17;0.52;;;;;;;16.42;52.64;101309.22;5025486;28;20519;-70
2022/09/16 11:35:23;;;;;;;1.15;0.55;;;;;;;16.43;52.65;101304.91;5019818;28;20486;-71
2022/09/16 11:37:59;;;;;;;1.45;1.17;;;;;;;16.41;52.56;101309.25;5020680;28;20053;-70
2022/09/16 11:40:43;;;;;;;2.80;0.57;;;;;;;16.41;52.58;101307.50;5023518;28;20041;-71
2022/09/16 11:43:43;;;;;;;1.10;0.63;;;;;;;16.42;52.56;101305.75;5026298;28;20533;-71
2022/09/16 11:46:22;;;;;;;1.67;0.80;;;;;;;16.45;51.99;101306.69;5020848;28;20497;-71
2022/09/16 11:49:06;;;;;;;0.93;0.75;;;;;;;16.46;51.78;101311.03;5026903;28;20462;-70
2022/09/16 11:51:53;;;;;;;1.05;0.73;;;;;;;16.43;52.48;101312.75;5020731;28;20049;-71
2022/09/16 11:54:39;;;;;;;0.88;0.80;;;;;;;16.44;52.16;101315.38;5022372;28;20045;-70
2022/09/16 11:57:14;;;;;;;2.28;0.68;;;;;;;16.45;52.01;101313.66;5022841;28;20056;-71